Time;durP1;ratioP1;P1;durP2;ratioP2;P2;SDS_P1;SDS_P2;PMS_P1;PMS_P2;Temp;Humidity;BMP_temperature;BMP_pressure;BME280_temperature;BME280_humidity;BME280_pressure;Samples;Min_cycle;Max_cycle;Signal;HPM_P1;HPM_P2
2022/02/11 00:07:58;;;;;;;16.90;8.40;;;;;;;9.49;57.87;99167.92;221232;1278;138781;-58
2022/02/11 00:13:03;;;;;;;16.10;8.60;;;;;;;9.52;57.88;99171.36;221361;1277;139114;-58
2022/02/11 00:18:09;;;;;;;17.20;9.10;;;;;;;9.50;57.86;99172.66;221462;1277;139660;-57
2022/02/11 00:23:12;;;;;;;15.40;8.50;;;;;;;9.51;57.77;99173.33;221374;1277;138898;-54
2022/02/11 00:29:14;;;;;;;15.10;9.20;;;;;;;9.52;57.93;99172.20;221338;1277;138459;-54
2022/02/11 00:33:52;;;;;;;20.60;9.40;;;;;;;9.53;58.07;99174.30;221313;1277;138810;-54
2022/02/11 01:05:29;;;;;;;20.20;9.90;;;;;;;9.40;58.81;99182.41;221437;1277;139988;-53
2022/02/11 01:10:33;;;;;;;21.70;10.80;;;;;;;9.34;58.63;99180.64;221405;1277;139248;-56
2022/02/11 01:15:40;;;;;;;17.10;10.40;;;;;;;9.24;58.53;99183.83;221549;1277;139069;-54
2022/02/11 01:26:32;;;;;;;18.40;11.20;;;;;;;9.11;59.37;99181.14;221305;1277;139358;-56
2022/02/11 01:31:45;;;;;;;16.60;10.90;;;;;;;9.07;59.32;99182.29;221338;1279;139030;-56
2022/02/11 02:25:24;;;;;;;17.90;9.80;;;;;;;8.80;60.23;99151.85;220501;1279;139636;-52
2022/02/11 02:56:52;;;;;;;17.00;10.60;;;;;;;8.88;60.48;99144.15;220341;1280;139262;-51
2022/02/11 04:53:00;;;;;;;21.00;12.30;;;;;;;8.72;61.06;99174.58;219868;1281;139610;-51
2022/02/11 04:59:56;;;;;;;433.80;321.80;;;;;;;9.50;60.72;99168.25;220712;1280;140079;-56
2022/02/11 05:05:04;;;;;;;33.90;17.60;;;;;;;9.41;61.01;99173.33;220528;1280;139627;-56
2022/02/11 05:10:09;;;;;;;29.40;15.00;;;;;;;9.31;60.92;99170.71;220522;1280;139566;-55
2022/02/11 05:15:12;;;;;;;24.40;13.50;;;;;;;9.17;60.62;99167.02;220220;1282;139587;-56
2022/02/11 05:20:15;;;;;;;42.20;24.30;;;;;;;9.11;60.90;99159.77;220400;1281;139186;-54
2022/02/11 05:25:18;;;;;;;29.90;15.00;;;;;;;9.10;60.79;99159.28;220386;1280;140791;-55
2022/02/11 05:30:21;;;;;;;24.40;14.20;;;;;;;9.03;60.85;99160.02;220285;1280;139504;-53
2022/02/11 05:35:24;;;;;;;31.60;15.50;;;;;;;8.93;60.73;99163.71;220670;1280;140358;-53
2022/02/11 05:40:28;;;;;;;27.90;15.10;;;;;;;8.83;60.73;99170.29;220610;1280;139267;-56
2022/02/11 05:45:31;;;;;;;27.70;15.10;;;;;;;8.79;61.04;99168.70;220449;1280;139119;-57
2022/02/11 05:50:35;;;;;;;27.90;15.80;;;;;;;8.76;61.10;99170.98;220244;1281;138670;-55
2022/02/11 05:55:40;;;;;;;22.10;12.20;;;;;;;8.75;61.43;99173.48;220354;1280;138939;-55
2022/02/11 06:00:43;;;;;;;17.90;11.40;;;;;;;8.74;61.36;99175.86;220475;1280;139355;-54
2022/02/11 06:05:46;;;;;;;17.10;9.90;;;;;;;8.68;61.45;99176.21;220507;1280;138791;-57
2022/02/11 06:10:49;;;;;;;10.90;7.60;;;;;;;8.65;61.65;99181.64;220141;1281;139942;-56
2022/02/11 06:15:53;;;;;;;13.20;7.00;;;;;;;8.65;61.86;99190.99;220206;1281;139888;-57
2022/02/11 06:20:57;;;;;;;9.70;5.90;;;;;;;8.63;62.14;99194.14;220380;1279;140196;-56
2022/02/11 06:26:00;;;;;;;10.70;6.00;;;;;;;8.56;62.18;99193.07;220303;1280;139177;-61
2022/02/11 06:31:03;;;;;;;9.90;6.20;;;;;;;8.49;62.58;99196.97;220455;1280;140833;-57
2022/02/11 06:36:06;;;;;;;12.80;6.60;;;;;;;8.42;62.80;99195.20;220384;1281;141019;-54
2022/02/11 06:41:11;;;;;;;12.00;5.80;;;;;;;8.34;63.02;99194.52;220223;1280;138980;-59
2022/02/11 06:46:15;;;;;;;6.50;4.20;;;;;;;8.25;63.21;99193.74;220338;1280;140063;-59
2022/02/11 06:51:18;;;;;;;6.60;3.90;;;;;;;8.16;63.45;99186.57;220316;1281;139211;-58
2022/02/11 06:56:21;;;;;;;4.70;2.70;;;;;;;8.06;63.47;99179.82;220188;1281;140533;-58
2022/02/11 07:01:25;;;;;;;4.60;3.10;;;;;;;8.00;63.76;99176.27;220491;1280;139413;-57
2022/02/11 07:06:28;;;;;;;5.20;3.40;;;;;;;8.02;64.01;99176.86;220455;1280;139487;-57
2022/02/11 07:11:31;;;;;;;7.60;3.80;;;;;;;8.05;64.18;99181.28;220335;1281;138972;-55
2022/02/11 07:16:34;;;;;;;6.10;3.60;;;;;;;8.04;64.22;99175.00;220569;1280;138753;-56
2022/02/11 07:21:37;;;;;;;6.60;4.10;;;;;;;8.01;64.30;99172.31;220829;1280;139383;-56
2022/02/11 07:26:40;;;;;;;8.00;4.10;;;;;;;7.97;64.33;99170.58;220515;1280;141438;-58
2022/02/11 07:31:43;;;;;;;6.50;4.50;;;;;;;7.94;64.67;99171.80;220484;1281;139172;-56
2022/02/11 07:36:46;;;;;;;11.40;4.60;;;;;;;7.97;64.90;99162.80;220190;1281;139232;-58
2022/02/11 07:41:49;;;;;;;7.20;4.10;;;;;;;8.00;65.06;99163.71;220390;1281;138823;-58
2022/02/11 07:46:53;;;;;;;9.10;4.80;;;;;;;8.02;65.02;99163.41;220005;1283;139368;-58
2022/02/11 07:51:56;;;;;;;9.80;5.60;;;;;;;8.07;65.22;99162.80;220310;1281;139254;-58
2022/02/11 07:56:59;;;;;;;12.00;6.90;;;;;;;8.10;65.24;99155.80;220391;1281;140117;-57
2022/02/11 08:02:03;;;;;;;15.40;7.80;;;;;;;8.14;65.50;99147.43;220645;1279;140698;-56
2022/02/11 08:07:06;;;;;;;14.60;7.00;;;;;;;8.17;65.33;99143.58;220581;1280;138557;-57
2022/02/11 08:12:11;;;;;;;14.70;8.20;;;;;;;8.13;65.45;99146.97;220369;1281;139191;-57
2022/02/11 08:17:14;;;;;;;20.00;10.20;;;;;;;8.13;65.61;99143.95;220597;1281;139380;-56
2022/02/11 08:22:17;;;;;;;24.00;10.90;;;;;;;8.12;65.67;99133.77;220570;1280;139837;-54
2022/02/11 08:27:20;;;;;;;23.00;11.10;;;;;;;8.14;65.97;99127.33;220386;1281;139010;-56
2022/02/11 08:32:24;;;;;;;22.40;11.50;;;;;;;8.22;66.11;99124.94;220097;1281;140265;-57
2022/02/11 08:37:27;;;;;;;20.60;12.00;;;;;;;8.33;65.94;99124.02;220327;1281;139357;-58
2022/02/11 08:42:30;;;;;;;21.90;12.50;;;;;;;8.43;66.23;99119.48;220655;1281;139379;-57
2022/02/11 08:47:36;;;;;;;29.60;16.70;;;;;;;8.51;66.27;99120.47;220237;1281;139652;-56
2022/02/11 08:52:40;;;;;;;26.10;16.20;;;;;;;8.50;65.94;99128.84;220192;1280;140315;-53
2022/02/11 08:57:44;;;;;;;24.80;16.90;;;;;;;8.46;65.86;99132.59;219702;1280;139188;-57
2022/02/11 09:02:47;;;;;;;22.50;17.30;;;;;;;8.42;65.87;99129.77;220371;1281;139789;-57
2022/02/11 09:07:59;;;;;;;27.00;19.00;;;;;;;8.38;65.91;99125.93;220257;1281;140631;-58
2022/02/11 09:13:03;;;;;;;25.20;14.60;;;;;;;8.37;66.07;99123.66;220175;1280;139527;-58
2022/02/11 09:18:06;;;;;;;23.30;14.40;;;;;;;8.34;66.10;99120.64;220721;1280;140163;-57
2022/02/11 09:23:09;;;;;;;27.50;17.90;;;;;;;8.35;66.12;99127.83;220185;1281;139441;-57
2022/02/11 09:28:12;;;;;;;25.80;18.50;;;;;;;8.38;66.31;99118.50;220485;1278;139944;-56
2022/02/11 09:33:16;;;;;;;29.60;19.40;;;;;;;8.38;66.12;99114.09;220381;1280;140254;-58
2022/02/11 09:38:19;;;;;;;29.30;20.10;;;;;;;8.42;66.55;99112.11;220416;1281;139885;-56
2022/02/11 09:43:25;;;;;;;27.10;19.60;;;;;;;8.45;66.50;99107.88;220475;1281;139212;-57
2022/02/11 09:48:28;;;;;;;30.20;20.50;;;;;;;8.46;66.41;99101.28;220482;1280;138916;-54
2022/02/11 09:53:30;;;;;;;28.60;19.30;;;;;;;8.47;66.45;99098.79;220125;1281;140088;-57
2022/02/11 09:58:35;;;;;;;28.40;18.20;;;;;;;8.42;66.41;99095.46;220236;1281;139019;-58
2022/02/11 10:03:38;;;;;;;31.30;18.20;;;;;;;8.45;66.64;99097.11;220395;1281;140162;-58
2022/02/11 10:08:41;;;;;;;27.90;19.00;;;;;;;8.54;66.61;99096.45;220425;1279;140320;-61
2022/02/11 10:13:46;;;;;;;31.20;20.50;;;;;;;8.62;66.75;99092.85;220371;1281;139167;-55
2022/02/11 10:18:51;;;;;;;33.30;21.90;;;;;;;8.70;66.70;99089.23;220615;1279;139817;-55
2022/02/11 10:23:54;;;;;;;33.00;20.70;;;;;;;8.75;66.70;99083.84;220580;1280;139214;-56
2022/02/11 10:28:57;;;;;;;216.60;127.80;;;;;;;8.78;66.67;99077.84;220138;1281;139732;-56
2022/02/11 10:34:06;;;;;;;38.30;23.20;;;;;;;8.91;67.05;99077.84;219889;1281;139509;-60
2022/02/11 10:39:09;;;;;;;32.40;20.10;;;;;;;8.93;66.49;99068.89;220168;1280;139686;-57
2022/02/11 10:44:14;;;;;;;29.60;18.50;;;;;;;8.94;66.64;99060.54;220515;1280;140968;-57
2022/02/11 10:49:28;;;;;;;25.00;17.10;;;;;;;8.98;66.63;99053.02;220336;1281;140342;-57
2022/02/11 10:54:34;;;;;;;27.20;17.40;;;;;;;9.00;66.34;99057.49;220562;1280;139245;-52
2022/02/11 10:59:39;;;;;;;25.20;15.90;;;;;;;9.03;66.37;99052.06;220308;1280;139382;-56
2022/02/11 11:04:42;;;;;;;28.60;16.20;;;;;;;9.02;66.19;99040.80;220171;1281;139165;-54
2022/02/11 11:09:45;;;;;;;31.50;17.30;;;;;;;8.97;66.07;99037.51;220228;1280;138870;-53
2022/02/11 11:14:51;;;;;;;28.50;16.80;;;;;;;8.99;66.21;99038.48;220300;1281;139649;-51
2022/02/11 11:19:58;;;;;;;24.50;14.70;;;;;;;9.01;66.28;99037.84;220328;1280;139523;-50
2022/02/11 11:25:05;;;;;;;24.30;13.60;;;;;;;8.99;66.14;99048.91;220321;1281;139348;-50
2022/02/11 11:30:37;;;;;;;27.10;14.20;;;;;;;8.94;65.65;99055.75;220392;1280;140360;-54
2022/02/11 11:35:45;;;;;;;24.60;12.40;;;;;;;8.92;65.62;99042.05;219899;1281;139950;-50
2022/02/11 11:41:27;;;;;;;19.90;11.00;;;;;;;8.96;65.09;99048.89;220268;1281;139891;-52
2022/02/11 11:46:33;;;;;;;18.10;11.40;;;;;;;9.00;64.62;99038.39;219802;1282;139379;-50
2022/02/11 11:51:35;;;;;;;23.80;12.50;;;;;;;9.07;64.46;99020.70;220214;1277;140177;-51
2022/02/11 11:56:39;;;;;;;17.80;11.60;;;;;;;9.16;64.24;99015.77;220353;1279;139258;-52
2022/02/11 12:02:10;;;;;;;15.60;9.80;;;;;;;9.21;63.87;99019.50;220448;1279;139749;-51
2022/02/11 12:07:19;;;;;;;14.20;7.30;;;;;;;9.24;63.38;99022.39;220219;1280;139564;-52
2022/02/11 12:12:25;;;;;;;14.90;6.60;;;;;;;9.28;62.99;99011.02;220339;1281;139860;-52
2022/02/11 12:17:27;;;;;;;;;;;;;;;9.33;62.35;99014.23;220407;1281;138988;-52
2022/02/11 12:22:31;;;;;;;11.20;5.70;;;;;;;9.36;61.99;99007.36;220418;1280;125853;-53
2022/02/11 12:27:38;;;;;;;11.50;5.30;;;;;;;9.35;61.52;99003.70;220329;1281;140183;-55
2022/02/11 12:32:48;;;;;;;11.70;4.90;;;;;;;9.29;61.24;98998.39;220148;1279;139424;-52
2022/02/11 12:37:51;;;;;;;14.60;4.70;;;;;;;9.26;61.01;99003.70;220536;1280;139249;-55
2022/02/11 12:42:56;;;;;;;11.20;4.20;;;;;;;9.25;60.57;99005.48;220131;1278;140709;-54
2022/02/11 12:48:01;;;;;;;;;;;;;;;9.25;60.30;99005.85;220326;1281;140091;-53
2022/02/11 12:53:07;;;;;;;20.60;6.70;;;;;;;9.25;60.38;99007.09;220600;1279;125744;-51
2022/02/11 12:58:11;;;;;;;8.60;4.20;;;;;;;9.37;60.10;99004.64;220063;1282;139636;-53
2022/02/11 13:03:16;;;;;;;14.10;4.40;;;;;;;9.37;59.63;99017.40;220515;1280;139321;-53
2022/02/11 13:08:21;;;;;;;7.80;4.10;;;;;;;9.32;59.49;99024.05;220193;1281;139105;-54
2022/02/11 13:13:25;;;;;;;7.40;4.20;;;;;;;9.22;59.42;99035.07;220119;1281;138562;-51
2022/02/11 13:18:30;;;;;;;8.00;4.20;;;;;;;9.12;59.54;99044.67;220137;1281;140137;-56
2022/02/11 13:23:34;;;;;;;8.90;4.20;;;;;;;9.05;59.81;99063.27;220280;1280;139236;-54
2022/02/11 13:28:45;;;;;;;8.70;4.40;;;;;;;8.90;60.17;99086.58;220316;1281;139032;-55
2022/02/11 13:34:15;;;;;;;7.40;4.60;;;;;;;8.60;60.40;99086.92;220012;1280;139283;-57
2022/02/11 13:39:32;;;;;;;6.80;4.40;;;;;;;8.33;61.08;99101.79;220000;1281;139196;-54
2022/02/11 13:44:35;;;;;;;7.60;4.10;;;;;;;8.19;61.54;99096.29;220419;1280;138701;-55
2022/02/11 13:49:38;;;;;;;8.80;4.70;;;;;;;8.11;62.00;99106.63;220216;1281;139487;-56
2022/02/11 13:55:05;;;;;;;6.40;4.60;;;;;;;8.03;62.20;99113.52;220464;1280;139254;-59
2022/02/11 14:00:26;;;;;;;8.50;5.30;;;;;;;8.05;62.57;99137.64;220165;1281;140104;-55
2022/02/11 14:05:42;;;;;;;8.00;4.80;;;;;;;8.02;62.78;99148.59;220191;1280;138679;-56
2022/02/11 14:11:06;;;;;;;9.40;5.70;;;;;;;7.89;62.97;99159.99;220283;1280;139160;-56
2022/02/11 14:16:09;;;;;;;108.90;70.70;;;;;;;7.77;63.33;99181.07;220164;1280;139042;-53
2022/02/11 14:21:15;;;;;;;11.70;6.20;;;;;;;7.66;63.67;99202.97;220405;1280;140116;-54
2022/02/11 14:26:18;;;;;;;6.80;4.50;;;;;;;7.47;63.71;99213.06;220440;1280;140285;-54
2022/02/11 14:31:21;;;;;;;6.60;4.60;;;;;;;7.29;63.75;99223.91;220510;1280;139984;-54
2022/02/11 14:36:24;;;;;;;7.80;4.60;;;;;;;7.14;63.84;99245.27;220200;1279;138591;-56
2022/02/11 14:41:46;;;;;;;7.40;5.50;;;;;;;7.01;63.92;99263.67;220302;1280;139633;-57
2022/02/11 14:46:52;;;;;;;6.20;3.90;;;;;;;6.85;64.35;99277.01;219882;1281;139128;-57
2022/02/11 14:52:02;;;;;;;3.30;1.90;;;;;;;6.79;63.84;99302.52;220019;1280;140739;-54
2022/02/11 14:57:07;;;;;;;3.80;2.20;;;;;;;6.64;63.59;99322.55;220412;1280;138821;-55
2022/02/11 15:02:10;;;;;;;2.60;2.00;;;;;;;6.49;63.27;99349.23;220269;1280;139362;-53
2022/02/11 15:07:14;;;;;;;3.10;2.00;;;;;;;6.23;62.98;99384.11;220545;1280;138685;-53
2022/02/11 15:12:17;;;;;;;4.50;2.10;;;;;;;5.94;62.87;99413.19;219871;1282;140018;-54
2022/02/11 15:17:20;;;;;;;5.50;2.30;;;;;;;5.75;62.94;99426.02;220367;1280;138908;-53
2022/02/11 15:22:23;;;;;;;2.70;1.80;;;;;;;5.64;63.43;99453.70;220176;1281;139668;-55
2022/02/11 15:27:26;;;;;;;2.70;1.70;;;;;;;5.58;63.32;99453.23;220404;1280;139199;-54
2022/02/11 15:32:29;;;;;;;3.20;2.00;;;;;;;5.55;63.29;99476.52;220506;1279;140276;-53
2022/02/11 15:37:32;;;;;;;3.50;2.10;;;;;;;5.50;63.17;99497.31;220162;1280;139445;-56
2022/02/11 15:42:35;;;;;;;3.50;2.30;;;;;;;5.41;63.16;99528.20;220435;1280;139078;-54
2022/02/11 15:47:38;;;;;;;2.90;2.00;;;;;;;5.42;63.40;99541.74;220316;1280;139758;-56
2022/02/11 15:52:42;;;;;;;3.00;2.20;;;;;;;5.35;62.82;99562.91;220565;1279;138958;-53
2022/02/11 15:57:45;;;;;;;4.00;2.20;;;;;;;5.28;62.71;99580.55;220252;1280;139194;-56
2022/02/11 16:02:49;;;;;;;2.50;1.60;;;;;;;5.20;62.85;99589.59;221233;1279;138661;-53
2022/02/11 16:07:54;;;;;;;4.70;3.00;;;;;;;5.10;62.48;99606.80;221154;1278;138942;-53
2022/02/11 16:12:59;;;;;;;3.70;2.00;;;;;;;4.99;62.65;99619.42;221366;1279;139370;-56
2022/02/11 16:18:05;;;;;;;4.30;2.20;;;;;;;4.96;62.74;99630.25;221223;1279;139248;-51
2022/02/11 16:23:10;;;;;;;4.40;2.30;;;;;;;4.94;63.24;99642.09;220924;1279;141806;-53
2022/02/11 16:28:15;;;;;;;9.40;4.80;;;;;;;5.17;65.57;99650.34;220885;1278;138319;-53
2022/02/11 16:33:22;;;;;;;5.80;3.00;;;;;;;7.24;70.75;99659.26;220904;1280;142380;-53
2022/02/11 16:38:31;;;;;;;5.30;2.80;;;;;;;8.97;68.25;99656.35;221239;1279;139396;-55
2022/02/11 16:43:35;;;;;;;5.50;2.40;;;;;;;8.75;62.27;99659.95;221036;1279;139065;-54
2022/02/11 16:48:38;;;;;;;2.90;1.90;;;;;;;7.71;60.11;99677.63;220869;1279;604031;-56
2022/02/11 16:53:42;;;;;;;4.60;2.60;;;;;;;6.90;60.14;99680.02;221032;1278;139685;-56
2022/02/11 16:58:45;;;;;;;6.00;2.70;;;;;;;6.35;60.38;99698.55;221091;1279;138538;-55
2022/02/11 17:03:48;;;;;;;4.00;2.60;;;;;;;5.79;60.70;99706.52;221159;1279;141363;-52
2022/02/11 17:08:52;;;;;;;4.40;2.80;;;;;;;5.38;61.68;99705.15;221226;1279;139256;-56
2022/02/11 17:13:55;;;;;;;5.10;3.10;;;;;;;5.11;62.25;99710.17;221048;1278;138329;-56
2022/02/11 17:19:04;;;;;;;5.50;3.10;;;;;;;4.95;62.68;99705.36;221284;1278;138325;-56
2022/02/11 17:24:08;;;;;;;4.40;2.90;;;;;;;4.87;62.81;99711.73;220434;1280;139579;-56
2022/02/11 17:29:12;;;;;;;5.70;3.70;;;;;;;4.86;63.01;99714.23;220319;1279;139259;-59
2022/02/11 17:34:15;;;;;;;6.60;4.20;;;;;;;4.86;63.12;99726.73;220454;1279;139225;-56
2022/02/11 17:39:18;;;;;;;7.80;4.80;;;;;;;4.84;63.28;99735.71;221252;1279;139497;-55
2022/02/11 17:44:22;;;;;;;9.00;4.90;;;;;;;4.82;63.52;99743.52;221195;1279;138660;-56
2022/02/11 17:49:26;;;;;;;7.30;4.80;;;;;;;4.79;63.36;99750.98;220646;1280;139350;-58
2022/02/11 17:54:30;;;;;;;7.00;4.80;;;;;;;4.69;63.52;99757.05;220505;1280;139139;-59
2022/02/11 17:59:33;;;;;;;8.10;5.50;;;;;;;4.64;63.93;99754.89;220052;1280;139540;-56
2022/02/11 18:04:36;;;;;;;9.70;6.40;;;;;;;4.65;63.98;99754.70;220382;1281;139407;-56
2022/02/11 18:09:39;;;;;;;9.50;5.90;;;;;;;4.63;63.69;99758.45;220486;1279;138725;-57
2022/02/11 18:14:42;;;;;;;11.50;6.60;;;;;;;4.67;63.73;99758.17;220228;1281;141130;-58
2022/02/11 18:19:45;;;;;;;10.80;7.00;;;;;;;4.76;63.91;99769.88;220134;1280;138986;-58
2022/02/11 18:24:48;;;;;;;14.30;7.40;;;;;;;4.84;63.75;99779.48;220421;1280;141461;-57
2022/02/11 18:29:51;;;;;;;12.30;7.70;;;;;;;4.87;63.87;99791.56;220462;1280;140677;-54
2022/02/11 18:34:54;;;;;;;13.00;8.00;;;;;;;4.89;64.08;99798.71;220493;1280;139037;-58
2022/02/11 18:39:58;;;;;;;11.90;7.70;;;;;;;4.88;63.91;99814.55;220235;1280;139281;-56
2022/02/11 18:45:02;;;;;;;182.00;96.90;;;;;;;4.88;63.98;99820.70;220314;1280;140082;-54
2022/02/11 18:50:09;;;;;;;21.30;11.60;;;;;;;4.92;64.31;99826.77;220342;1280;140495;-55
2022/02/11 18:55:12;;;;;;;11.80;7.50;;;;;;;4.88;64.11;99837.58;220409;1279;139899;-58
2022/02/11 19:00:28;;;;;;;11.10;7.20;;;;;;;4.86;64.21;99849.60;220267;1281;139080;-56
2022/02/11 19:05:35;;;;;;;12.40;7.50;;;;;;;4.86;64.00;99856.81;220324;1279;139049;-55
2022/02/11 19:10:39;;;;;;;11.20;6.90;;;;;;;4.89;64.05;99863.59;220390;1280;139662;-56
2022/02/11 19:15:42;;;;;;;11.20;7.10;;;;;;;4.92;63.87;99864.73;220362;1280;140783;-61
2022/02/11 19:20:47;;;;;;;17.50;9.80;;;;;;;4.99;64.36;99868.95;220052;1280;139354;-58
2022/02/11 19:25:50;;;;;;;13.20;7.80;;;;;;;5.09;63.96;99872.05;220336;1281;138717;-57
2022/02/11 19:30:53;;;;;;;12.10;7.20;;;;;;;5.01;63.75;99890.35;220584;1279;141739;-55
2022/02/11 19:35:58;;;;;;;10.50;6.40;;;;;;;4.93;63.46;99893.02;220478;1280;139065;-56
2022/02/11 19:41:01;;;;;;;11.70;7.00;;;;;;;4.84;63.51;99896.41;220376;1280;138943;-55
2022/02/11 19:46:04;;;;;;;10.20;6.90;;;;;;;4.73;63.33;99895.46;220306;1280;138758;-55
2022/02/11 19:51:08;;;;;;;9.00;6.00;;;;;;;4.63;63.19;99896.05;220504;1280;138732;-58
2022/02/11 19:56:31;;;;;;;10.90;6.10;;;;;;;4.58;63.31;99898.65;220415;1280;138907;-52
2022/02/11 20:01:34;;;;;;;11.80;5.60;;;;;;;4.47;63.05;99906.42;220170;1280;139975;-56
2022/02/11 20:06:37;;;;;;;13.80;7.00;;;;;;;4.42;63.04;99912.34;220189;1281;139479;-56
2022/02/11 20:11:40;;;;;;;10.50;6.20;;;;;;;4.40;63.02;99919.07;220104;1281;139496;-55
2022/02/11 20:16:43;;;;;;;10.90;5.40;;;;;;;4.33;63.00;99926.95;220319;1281;139124;-55
2022/02/11 20:21:46;;;;;;;10.60;6.10;;;;;;;4.25;63.03;99920.63;220342;1281;138973;-56
2022/02/11 20:26:51;;;;;;;10.20;5.80;;;;;;;4.19;63.18;99923.23;220286;1281;138582;-57
2022/02/11 20:31:54;;;;;;;8.80;5.80;;;;;;;4.15;63.20;99938.27;220654;1280;139227;-54
2022/02/11 20:36:57;;;;;;;11.50;6.10;;;;;;;4.12;63.16;99947.80;220656;1280;138829;-56
2022/02/11 20:42:00;;;;;;;8.70;6.30;;;;;;;4.11;63.45;99958.53;220199;1281;139205;-56
2022/02/11 20:47:03;;;;;;;12.40;6.20;;;;;;;4.10;63.32;99959.44;220315;1280;138945;-57
2022/02/11 20:52:07;;;;;;;21.20;12.20;;;;;;;4.10;63.49;99961.02;220373;1280;139484;-53
2022/02/11 20:57:12;;;;;;;13.20;6.50;;;;;;;4.15;63.43;99963.72;220496;1280;140196;-55
2022/02/11 21:02:15;;;;;;;12.30;7.40;;;;;;;4.19;63.38;99970.13;220496;1280;139220;-55
2022/02/11 21:07:18;;;;;;;14.70;8.30;;;;;;;4.21;63.40;99971.84;220300;1281;139346;-59
2022/02/11 21:12:21;;;;;;;19.70;11.10;;;;;;;4.27;63.70;99974.69;220575;1280;138657;-53
2022/02/11 21:17:24;;;;;;;62.60;42.60;;;;;;;4.34;63.64;99979.13;220568;1279;139751;-57
2022/02/11 21:22:27;;;;;;;21.30;12.30;;;;;;;4.39;63.80;99986.38;220254;1281;139395;-58
2022/02/11 21:27:31;;;;;;;20.10;9.90;;;;;;;4.41;63.52;100000.23;220363;1281;138863;-57
2022/02/11 21:32:34;;;;;;;15.20;9.70;;;;;;;4.34;63.58;100010.90;220458;1280;139147;-56
2022/02/11 21:37:37;;;;;;;17.50;9.70;;;;;;;4.28;63.46;100010.15;220731;1280;139476;-57
2022/02/11 21:42:41;;;;;;;17.80;10.90;;;;;;;4.22;63.09;100015.02;220598;1280;139307;-56
2022/02/11 21:47:44;;;;;;;17.60;10.00;;;;;;;4.19;63.54;100020.70;220372;1280;139932;-54
2022/02/11 21:52:47;;;;;;;20.40;10.50;;;;;;;4.14;63.22;100020.62;220395;1279;140441;-53
2022/02/11 21:57:51;;;;;;;21.90;13.20;;;;;;;4.11;63.44;100029.30;220532;1280;140031;-53
2022/02/11 22:02:54;;;;;;;21.30;12.90;;;;;;;4.10;63.66;100038.28;220383;1281;140122;-52
2022/02/11 22:07:57;;;;;;;22.20;12.10;;;;;;;4.11;63.59;100045.29;220381;1281;139270;-55
2022/02/11 22:13:00;;;;;;;20.40;12.60;;;;;;;4.12;63.74;100051.41;220403;1281;139214;-56
2022/02/11 22:18:04;;;;;;;23.30;13.90;;;;;;;4.08;63.68;100064.83;220695;1280;140365;-56
2022/02/11 22:23:06;;;;;;;23.00;13.30;;;;;;;4.05;63.87;100071.05;220438;1281;141792;-54
2022/02/11 22:28:09;;;;;;;26.00;15.40;;;;;;;4.03;63.84;100070.52;220347;1281;141309;-54
2022/02/11 22:33:13;;;;;;;27.10;14.40;;;;;;;4.02;64.11;100079.68;220148;1281;139084;-57
2022/02/11 22:38:17;;;;;;;22.30;13.40;;;;;;;4.01;64.25;100086.18;220227;1281;140476;-56
2022/02/11 22:43:20;;;;;;;24.30;13.50;;;;;;;4.09;64.07;100092.38;220441;1281;142545;-58
2022/02/11 22:48:23;;;;;;;20.20;11.40;;;;;;;4.15;64.10;100096.48;220530;1279;140211;-57
2022/02/11 22:53:26;;;;;;;19.90;11.80;;;;;;;4.16;64.22;100106.45;220298;1281;140297;-56
2022/02/11 22:58:29;;;;;;;19.40;11.90;;;;;;;4.12;63.89;100109.17;220363;1280;139205;-55
2022/02/11 23:03:32;;;;;;;20.40;11.30;;;;;;;4.09;64.11;100114.86;220283;1281;140504;-57
2022/02/11 23:14:01;;;;;;;20.50;12.50;;;;;;;4.03;64.23;100119.34;220429;1281;139666;-58
2022/02/11 23:19:04;;;;;;;22.90;12.40;;;;;;;4.06;64.44;100127.36;220558;1280;139382;-58
2022/02/11 23:24:12;;;;;;;18.60;10.90;;;;;;;4.05;64.32;100126.16;220103;1281;141489;-60
2022/02/11 23:29:16;;;;;;;19.50;9.40;;;;;;;4.03;64.04;100121.80;220321;1280;140324;-53
2022/02/11 23:34:19;;;;;;;16.30;9.30;;;;;;;4.06;64.16;100125.45;220287;1281;140426;-57
2022/02/11 23:39:22;;;;;;;17.20;9.00;;;;;;;4.06;64.13;100126.66;220208;1281;139085;-56
2022/02/11 23:44:25;;;;;;;17.10;9.40;;;;;;;4.02;64.13;100136.92;220205;1281;139905;-57
2022/02/11 23:49:28;;;;;;;16.20;9.90;;;;;;;3.96;63.91;100138.96;220533;1280;139797;-55
2022/02/11 23:54:31;;;;;;;15.10;10.20;;;;;;;3.91;64.20;100144.67;220534;1280;139453;-57
2022/02/11 23:59:34;;;;;;;15.80;10.00;;;;;;;3.85;64.18;100147.58;220874;1279;139135;-58
